sensor_id;sensor_type;location;lat;lon;timestamp;P1;durP1;ratioP1;P2;durP2;ratioP2
54197;SDS011;40105;52.366;17.000;2023-06-19T00:01:58;11.80;;;8.43;;
54197;SDS011;40105;52.366;17.000;2023-06-19T00:04:24;18.52;;;9.00;;
54197;SDS011;40105;52.366;17.000;2023-06-19T00:06:49;15.85;;;10.05;;
54197;SDS011;40105;52.366;17.000;2023-06-19T00:09:15;17.48;;;9.77;;
54197;SDS011;40105;52.366;17.000;2023-06-19T00:11:40;18.58;;;9.55;;
54197;SDS011;40105;52.366;17.000;2023-06-19T00:14:05;16.53;;;9.60;;
54197;SDS011;40105;52.366;17.000;2023-06-19T00:16:31;13.80;;;9.70;;
54197;SDS011;40105;52.366;17.000;2023-06-19T00:18:57;15.43;;;9.70;;
54197;SDS011;40105;52.366;17.000;2023-06-19T00:21:22;13.57;;;9.07;;
54197;SDS011;40105;52.366;17.000;2023-06-19T00:23:49;16.73;;;9.85;;
54197;SDS011;40105;52.366;17.000;2023-06-19T00:26:15;16.00;;;9.10;;
54197;SDS011;40105;52.366;17.000;2023-06-19T00:28:40;14.23;;;9.07;;
54197;SDS011;40105;52.366;17.000;2023-06-19T00:31:08;13.70;;;9.13;;
54197;SDS011;40105;52.366;17.000;2023-06-19T00:33:33;17.65;;;9.45;;
54197;SDS011;40105;52.366;17.000;2023-06-19T00:35:59;15.45;;;9.77;;
54197;SDS011;40105;52.366;17.000;2023-06-19T00:38:26;15.20;;;8.65;;
54197;SDS011;40105;52.366;17.000;2023-06-19T00:40:51;13.00;;;8.83;;
54197;SDS011;40105;52.366;17.000;2023-06-19T00:43:16;14.07;;;9.30;;
54197;SDS011;40105;52.366;17.000;2023-06-19T00:45:42;14.18;;;9.05;;
54197;SDS011;40105;52.366;17.000;2023-06-19T00:48:07;15.73;;;9.70;;
54197;SDS011;40105;52.366;17.000;2023-06-19T00:50:33;17.48;;;10.45;;
54197;SDS011;40105;52.366;17.000;2023-06-19T00:52:58;14.70;;;10.70;;
54197;SDS011;40105;52.366;17.000;2023-06-19T00:55:25;15.57;;;9.80;;
54197;SDS011;40105;52.366;17.000;2023-06-19T00:57:51;14.65;;;8.70;;
54197;SDS011;40105;52.366;17.000;2023-06-19T01:00:17;14.10;;;9.68;;
54197;SDS011;40105;52.366;17.000;2023-06-19T01:02:43;14.40;;;9.73;;
54197;SDS011;40105;52.366;17.000;2023-06-19T01:05:08;15.57;;;10.10;;
54197;SDS011;40105;52.366;17.000;2023-06-19T01:10:09;13.95;;;9.23;;
54197;SDS011;40105;52.366;17.000;2023-06-19T01:12:38;14.07;;;9.50;;
54197;SDS011;40105;52.366;17.000;2023-06-19T01:15:07;13.43;;;9.80;;
54197;SDS011;40105;52.366;17.000;2023-06-19T01:17:33;16.77;;;10.20;;
54197;SDS011;40105;52.366;17.000;2023-06-19T01:20:00;24.92;;;10.95;;
54197;SDS011;40105;52.366;17.000;2023-06-19T01:22:31;15.65;;;10.77;;
54197;SDS011;40105;52.366;17.000;2023-06-19T01:24:56;13.82;;;9.10;;
54197;SDS011;40105;52.366;17.000;2023-06-19T01:27:22;21.35;;;11.15;;
54197;SDS011;40105;52.366;17.000;2023-06-19T01:29:50;17.90;;;11.52;;
54197;SDS011;40105;52.366;17.000;2023-06-19T01:32:17;14.95;;;10.10;;
54197;SDS011;40105;52.366;17.000;2023-06-19T01:34:44;16.40;;;10.20;;
54197;SDS011;40105;52.366;17.000;2023-06-19T01:37:11;15.07;;;9.95;;
54197;SDS011;40105;52.366;17.000;2023-06-19T01:39:37;18.00;;;10.50;;
54197;SDS011;40105;52.366;17.000;2023-06-19T01:42:02;17.95;;;11.07;;
54197;SDS011;40105;52.366;17.000;2023-06-19T01:44:29;25.05;;;10.68;;
54197;SDS011;40105;52.366;17.000;2023-06-19T01:46:54;22.95;;;11.07;;
54197;SDS011;40105;52.366;17.000;2023-06-19T01:49:20;18.88;;;11.35;;
54197;SDS011;40105;52.366;17.000;2023-06-19T01:51:45;20.25;;;11.80;;
54197;SDS011;40105;52.366;17.000;2023-06-19T01:54:10;19.95;;;13.00;;
54197;SDS011;40105;52.366;17.000;2023-06-19T01:56:36;17.10;;;12.60;;
54197;SDS011;40105;52.366;17.000;2023-06-19T01:59:01;21.20;;;11.98;;
54197;SDS011;40105;52.366;17.000;2023-06-19T02:01:27;21.77;;;13.02;;
54197;SDS011;40105;52.366;17.000;2023-06-19T02:03:52;19.13;;;12.30;;
54197;SDS011;40105;52.366;17.000;2023-06-19T02:06:17;22.15;;;13.40;;
54197;SDS011;40105;52.366;17.000;2023-06-19T02:08:43;19.50;;;11.90;;
54197;SDS011;40105;52.366;17.000;2023-06-19T02:11:08;19.95;;;13.05;;
54197;SDS011;40105;52.366;17.000;2023-06-19T02:13:34;18.63;;;12.30;;
54197;SDS011;40105;52.366;17.000;2023-06-19T02:15:59;28.50;;;13.07;;
54197;SDS011;40105;52.366;17.000;2023-06-19T02:18:24;19.92;;;12.50;;
54197;SDS011;40105;52.366;17.000;2023-06-19T02:20:50;15.38;;;11.57;;
54197;SDS011;40105;52.366;17.000;2023-06-19T02:23:15;19.08;;;11.93;;
54197;SDS011;40105;52.366;17.000;2023-06-19T02:25:40;19.25;;;12.20;;
54197;SDS011;40105;52.366;17.000;2023-06-19T02:28:06;16.40;;;11.67;;
54197;SDS011;40105;52.366;17.000;2023-06-19T02:30:31;19.73;;;12.85;;
54197;SDS011;40105;52.366;17.000;2023-06-19T02:32:56;21.38;;;13.55;;
54197;SDS011;40105;52.366;17.000;2023-06-19T02:35:22;15.70;;;11.55;;
54197;SDS011;40105;52.366;17.000;2023-06-19T02:37:47;22.93;;;12.13;;
54197;SDS011;40105;52.366;17.000;2023-06-19T02:40:12;22.27;;;12.80;;
54197;SDS011;40105;52.366;17.000;2023-06-19T02:42:39;18.45;;;11.95;;
54197;SDS011;40105;52.366;17.000;2023-06-19T02:45:04;21.58;;;13.63;;
54197;SDS011;40105;52.366;17.000;2023-06-19T02:47:30;22.25;;;13.90;;
54197;SDS011;40105;52.366;17.000;2023-06-19T02:49:57;21.65;;;13.18;;
54197;SDS011;40105;52.366;17.000;2023-06-19T02:52:23;17.63;;;12.23;;
54197;SDS011;40105;52.366;17.000;2023-06-19T02:54:48;19.90;;;12.87;;
54197;SDS011;40105;52.366;17.000;2023-06-19T02:57:13;20.30;;;12.27;;
54197;SDS011;40105;52.366;17.000;2023-06-19T02:59:39;28.85;;;12.73;;
54197;SDS011;40105;52.366;17.000;2023-06-19T03:02:04;20.15;;;12.70;;
54197;SDS011;40105;52.366;17.000;2023-06-19T03:04:29;21.23;;;13.45;;
54197;SDS011;40105;52.366;17.000;2023-06-19T03:06:55;20.10;;;14.23;;
54197;SDS011;40105;52.366;17.000;2023-06-19T03:09:20;23.02;;;13.77;;
54197;SDS011;40105;52.366;17.000;2023-06-19T03:11:45;24.13;;;14.73;;
54197;SDS011;40105;52.366;17.000;2023-06-19T03:14:11;24.63;;;14.77;;
54197;SDS011;40105;52.366;17.000;2023-06-19T03:16:36;22.58;;;13.95;;
54197;SDS011;40105;52.366;17.000;2023-06-19T03:19:01;20.10;;;14.05;;
54197;SDS011;40105;52.366;17.000;2023-06-19T03:21:27;21.55;;;14.13;;
54197;SDS011;40105;52.366;17.000;2023-06-19T03:23:52;21.13;;;13.75;;
54197;SDS011;40105;52.366;17.000;2023-06-19T03:26:18;27.90;;;14.32;;
54197;SDS011;40105;52.366;17.000;2023-06-19T03:28:44;24.95;;;13.80;;
54197;SDS011;40105;52.366;17.000;2023-06-19T03:31:11;21.20;;;13.73;;
54197;SDS011;40105;52.366;17.000;2023-06-19T03:33:36;17.52;;;12.98;;
54197;SDS011;40105;52.366;17.000;2023-06-19T03:36:02;24.75;;;14.50;;
54197;SDS011;40105;52.366;17.000;2023-06-19T03:38:28;24.90;;;15.70;;
54197;SDS011;40105;52.366;17.000;2023-06-19T03:40:53;22.52;;;14.25;;
54197;SDS011;40105;52.366;17.000;2023-06-19T03:43:18;22.07;;;14.03;;
54197;SDS011;40105;52.366;17.000;2023-06-19T03:45:44;23.33;;;14.60;;
54197;SDS011;40105;52.366;17.000;2023-06-19T03:48:10;21.48;;;14.50;;
54197;SDS011;40105;52.366;17.000;2023-06-19T03:50:36;23.88;;;14.05;;
54197;SDS011;40105;52.366;17.000;2023-06-19T03:53:01;22.65;;;14.60;;
54197;SDS011;40105;52.366;17.000;2023-06-19T03:55:27;27.95;;;16.33;;
54197;SDS011;40105;52.366;17.000;2023-06-19T03:57:52;22.52;;;15.60;;
54197;SDS011;40105;52.366;17.000;2023-06-19T04:00:17;26.60;;;15.90;;
54197;SDS011;40105;52.366;17.000;2023-06-19T04:02:43;27.33;;;16.38;;
54197;SDS011;40105;52.366;17.000;2023-06-19T04:05:11;26.30;;;16.77;;
54197;SDS011;40105;52.366;17.000;2023-06-19T04:07:36;29.92;;;17.13;;
54197;SDS011;40105;52.366;17.000;2023-06-19T04:10:02;26.88;;;17.50;;
54197;SDS011;40105;52.366;17.000;2023-06-19T04:12:27;27.48;;;18.80;;
54197;SDS011;40105;52.366;17.000;2023-06-19T04:14:53;36.15;;;19.80;;
54197;SDS011;40105;52.366;17.000;2023-06-19T04:17:18;36.80;;;20.17;;
54197;SDS011;40105;52.366;17.000;2023-06-19T04:19:43;30.73;;;19.48;;
54197;SDS011;40105;52.366;17.000;2023-06-19T04:22:09;34.23;;;19.40;;
54197;SDS011;40105;52.366;17.000;2023-06-19T04:24:35;29.42;;;20.48;;
54197;SDS011;40105;52.366;17.000;2023-06-19T04:27:00;38.92;;;21.58;;
54197;SDS011;40105;52.366;17.000;2023-06-19T04:29:26;31.95;;;21.88;;
54197;SDS011;40105;52.366;17.000;2023-06-19T04:31:51;35.23;;;22.67;;
54197;SDS011;40105;52.366;17.000;2023-06-19T04:34:17;38.60;;;24.02;;
54197;SDS011;40105;52.366;17.000;2023-06-19T04:36:45;39.20;;;23.02;;
54197;SDS011;40105;52.366;17.000;2023-06-19T04:39:11;34.50;;;22.95;;
54197;SDS011;40105;52.366;17.000;2023-06-19T04:41:37;41.73;;;25.00;;
54197;SDS011;40105;52.366;17.000;2023-06-19T04:44:04;35.92;;;25.17;;
54197;SDS011;40105;52.366;17.000;2023-06-19T04:46:32;43.08;;;21.40;;
54197;SDS011;40105;52.366;17.000;2023-06-19T04:48:58;46.60;;;26.90;;
54197;SDS011;40105;52.366;17.000;2023-06-19T04:51:23;33.43;;;23.60;;
54197;SDS011;40105;52.366;17.000;2023-06-19T04:53:48;35.83;;;24.07;;
54197;SDS011;40105;52.366;17.000;2023-06-19T04:56:14;46.90;;;26.98;;
54197;SDS011;40105;52.366;17.000;2023-06-19T04:58:40;38.78;;;25.75;;
54197;SDS011;40105;52.366;17.000;2023-06-19T05:01:11;33.17;;;22.13;;
54197;SDS011;40105;52.366;17.000;2023-06-19T05:03:37;32.58;;;23.27;;
54197;SDS011;40105;52.366;17.000;2023-06-19T05:06:03;37.95;;;21.40;;
54197;SDS011;40105;52.366;17.000;2023-06-19T05:08:28;31.47;;;20.63;;
54197;SDS011;40105;52.366;17.000;2023-06-19T05:10:53;32.43;;;21.57;;
54197;SDS011;40105;52.366;17.000;2023-06-19T05:13:19;46.88;;;21.63;;
54197;SDS011;40105;52.366;17.000;2023-06-19T05:15:45;40.20;;;22.93;;
54197;SDS011;40105;52.366;17.000;2023-06-19T05:18:10;35.33;;;23.00;;
54197;SDS011;40105;52.366;17.000;2023-06-19T05:20:36;33.50;;;22.40;;
54197;SDS011;40105;52.366;17.000;2023-06-19T05:23:01;32.67;;;20.73;;
54197;SDS011;40105;52.366;17.000;2023-06-19T05:25:26;34.40;;;22.08;;
54197;SDS011;40105;52.366;17.000;2023-06-19T05:27:52;36.22;;;21.23;;
54197;SDS011;40105;52.366;17.000;2023-06-19T05:30:18;30.65;;;19.85;;
54197;SDS011;40105;52.366;17.000;2023-06-19T05:32:43;32.42;;;19.33;;
54197;SDS011;40105;52.366;17.000;2023-06-19T05:35:08;26.73;;;19.40;;
54197;SDS011;40105;52.366;17.000;2023-06-19T05:37:34;26.95;;;19.27;;
54197;SDS011;40105;52.366;17.000;2023-06-19T05:39:59;34.53;;;20.47;;
54197;SDS011;40105;52.366;17.000;2023-06-19T05:42:24;26.75;;;18.73;;
54197;SDS011;40105;52.366;17.000;2023-06-19T05:44:49;34.50;;;19.35;;
54197;SDS011;40105;52.366;17.000;2023-06-19T05:47:15;29.60;;;18.67;;
54197;SDS011;40105;52.366;17.000;2023-06-19T05:49:42;28.75;;;19.77;;
54197;SDS011;40105;52.366;17.000;2023-06-19T05:52:07;32.00;;;19.27;;
54197;SDS011;40105;52.366;17.000;2023-06-19T05:54:33;25.58;;;19.17;;
54197;SDS011;40105;52.366;17.000;2023-06-19T05:56:58;30.07;;;17.73;;
54197;SDS011;40105;52.366;17.000;2023-06-19T05:59:23;38.03;;;16.93;;
54197;SDS011;40105;52.366;17.000;2023-06-19T06:01:49;26.63;;;17.63;;
54197;SDS011;40105;52.366;17.000;2023-06-19T06:04:15;28.40;;;16.92;;
54197;SDS011;40105;52.366;17.000;2023-06-19T06:06:41;23.48;;;15.75;;
54197;SDS011;40105;52.366;17.000;2023-06-19T06:09:06;41.53;;;18.15;;
54197;SDS011;40105;52.366;17.000;2023-06-19T06:11:34;28.00;;;18.27;;
54197;SDS011;40105;52.366;17.000;2023-06-19T06:13:59;29.03;;;17.57;;
54197;SDS011;40105;52.366;17.000;2023-06-19T06:16:25;24.10;;;13.50;;
54197;SDS011;40105;52.366;17.000;2023-06-19T06:18:50;22.77;;;13.63;;
54197;SDS011;40105;52.366;17.000;2023-06-19T06:21:15;26.30;;;11.50;;
54197;SDS011;40105;52.366;17.000;2023-06-19T06:23:41;27.08;;;12.30;;
54197;SDS011;40105;52.366;17.000;2023-06-19T06:26:06;18.63;;;10.20;;
54197;SDS011;40105;52.366;17.000;2023-06-19T06:28:31;16.60;;;11.37;;
54197;SDS011;40105;52.366;17.000;2023-06-19T06:30:57;21.30;;;10.40;;
54197;SDS011;40105;52.366;17.000;2023-06-19T06:33:22;20.13;;;11.32;;
54197;SDS011;40105;52.366;17.000;2023-06-19T06:35:48;22.50;;;11.20;;
54197;SDS011;40105;52.366;17.000;2023-06-19T06:38:13;13.43;;;9.80;;
54197;SDS011;40105;52.366;17.000;2023-06-19T06:40:39;23.30;;;8.47;;
54197;SDS011;40105;52.366;17.000;2023-06-19T06:43:06;11.63;;;8.15;;
54197;SDS011;40105;52.366;17.000;2023-06-19T06:45:31;11.97;;;7.77;;
54197;SDS011;40105;52.366;17.000;2023-06-19T06:47:57;15.20;;;7.20;;
54197;SDS011;40105;52.366;17.000;2023-06-19T06:50:22;10.67;;;8.00;;
54197;SDS011;40105;52.366;17.000;2023-06-19T06:52:47;15.40;;;8.60;;
54197;SDS011;40105;52.366;17.000;2023-06-19T06:55:13;13.65;;;7.50;;
54197;SDS011;40105;52.366;17.000;2023-06-19T06:57:38;13.05;;;7.15;;
54197;SDS011;40105;52.366;17.000;2023-06-19T07:00:04;17.50;;;7.85;;
54197;SDS011;40105;52.366;17.000;2023-06-19T07:02:30;11.82;;;7.10;;
54197;SDS011;40105;52.366;17.000;2023-06-19T07:04:55;9.68;;;6.57;;
54197;SDS011;40105;52.366;17.000;2023-06-19T07:07:21;11.23;;;5.90;;
54197;SDS011;40105;52.366;17.000;2023-06-19T07:09:46;21.93;;;7.07;;
54197;SDS011;40105;52.366;17.000;2023-06-19T07:12:12;10.32;;;6.30;;
54197;SDS011;40105;52.366;17.000;2023-06-19T07:14:37;17.35;;;6.20;;
54197;SDS011;40105;52.366;17.000;2023-06-19T07:17:03;11.00;;;5.05;;
54197;SDS011;40105;52.366;17.000;2023-06-19T07:19:31;11.35;;;4.53;;
54197;SDS011;40105;52.366;17.000;2023-06-19T07:21:56;7.67;;;5.07;;
54197;SDS011;40105;52.366;17.000;2023-06-19T07:24:21;8.82;;;5.22;;
54197;SDS011;40105;52.366;17.000;2023-06-19T07:26:48;8.70;;;4.90;;
54197;SDS011;40105;52.366;17.000;2023-06-19T07:29:14;9.53;;;5.10;;
54197;SDS011;40105;52.366;17.000;2023-06-19T07:31:39;10.75;;;5.75;;
54197;SDS011;40105;52.366;17.000;2023-06-19T07:34:07;8.43;;;4.78;;
54197;SDS011;40105;52.366;17.000;2023-06-19T07:36:32;10.27;;;4.93;;
54197;SDS011;40105;52.366;17.000;2023-06-19T07:38:58;12.73;;;4.47;;
54197;SDS011;40105;52.366;17.000;2023-06-19T07:41:23;11.10;;;4.70;;
54197;SDS011;40105;52.366;17.000;2023-06-19T07:43:48;8.33;;;4.00;;
54197;SDS011;40105;52.366;17.000;2023-06-19T07:46:14;10.47;;;5.10;;
54197;SDS011;40105;52.366;17.000;2023-06-19T07:48:40;9.30;;;5.50;;
54197;SDS011;40105;52.366;17.000;2023-06-19T07:51:05;8.50;;;4.47;;
54197;SDS011;40105;52.366;17.000;2023-06-19T07:53:31;9.38;;;4.90;;
54197;SDS011;40105;52.366;17.000;2023-06-19T07:55:56;9.13;;;4.55;;
54197;SDS011;40105;52.366;17.000;2023-06-19T07:58:21;8.67;;;5.63;;
54197;SDS011;40105;52.366;17.000;2023-06-19T08:00:47;9.18;;;4.22;;
54197;SDS011;40105;52.366;17.000;2023-06-19T08:03:12;7.90;;;4.57;;
54197;SDS011;40105;52.366;17.000;2023-06-19T08:05:38;16.58;;;4.75;;
54197;SDS011;40105;52.366;17.000;2023-06-19T08:08:03;5.83;;;3.97;;
54197;SDS011;40105;52.366;17.000;2023-06-19T08:10:28;6.90;;;4.18;;
54197;SDS011;40105;52.366;17.000;2023-06-19T08:12:54;11.40;;;4.73;;
54197;SDS011;40105;52.366;17.000;2023-06-19T08:15:19;7.97;;;4.50;;
54197;SDS011;40105;52.366;17.000;2023-06-19T08:17:44;11.17;;;4.17;;
54197;SDS011;40105;52.366;17.000;2023-06-19T08:20:10;6.30;;;4.00;;
54197;SDS011;40105;52.366;17.000;2023-06-19T08:22:35;6.93;;;4.47;;
54197;SDS011;40105;52.366;17.000;2023-06-19T08:25:01;6.97;;;4.43;;
54197;SDS011;40105;52.366;17.000;2023-06-19T08:27:27;6.13;;;4.13;;
54197;SDS011;40105;52.366;17.000;2023-06-19T08:29:53;9.37;;;4.37;;
54197;SDS011;40105;52.366;17.000;2023-06-19T08:32:18;7.67;;;4.47;;
54197;SDS011;40105;52.366;17.000;2023-06-19T08:34:44;17.38;;;4.72;;
54197;SDS011;40105;52.366;17.000;2023-06-19T08:37:09;11.80;;;3.87;;
54197;SDS011;40105;52.366;17.000;2023-06-19T08:39:35;6.67;;;3.80;;
54197;SDS011;40105;52.366;17.000;2023-06-19T08:42:07;7.60;;;4.07;;
54197;SDS011;40105;52.366;17.000;2023-06-19T08:44:33;8.07;;;4.90;;
54197;SDS011;40105;52.366;17.000;2023-06-19T08:46:59;10.38;;;4.38;;
54197;SDS011;40105;52.366;17.000;2023-06-19T08:49:24;8.50;;;4.17;;
54197;SDS011;40105;52.366;17.000;2023-06-19T08:51:50;9.13;;;4.00;;
54197;SDS011;40105;52.366;17.000;2023-06-19T08:54:15;11.97;;;4.13;;
54197;SDS011;40105;52.366;17.000;2023-06-19T08:56:40;7.15;;;4.45;;
54197;SDS011;40105;52.366;17.000;2023-06-19T08:59:16;8.20;;;4.10;;
54197;SDS011;40105;52.366;17.000;2023-06-19T09:01:53;6.72;;;4.13;;
54197;SDS011;40105;52.366;17.000;2023-06-19T09:04:22;8.27;;;4.80;;
54197;SDS011;40105;52.366;17.000;2023-06-19T09:06:52;7.55;;;4.38;;
54197;SDS011;40105;52.366;17.000;2023-06-19T09:09:21;11.23;;;4.00;;
54197;SDS011;40105;52.366;17.000;2023-06-19T09:11:57;6.78;;;3.80;;
54197;SDS011;40105;52.366;17.000;2023-06-19T09:16:57;10.23;;;5.07;;
54197;SDS011;40105;52.366;17.000;2023-06-19T09:19:22;7.70;;;4.40;;
54197;SDS011;40105;52.366;17.000;2023-06-19T09:21:47;9.48;;;4.70;;
54197;SDS011;40105;52.366;17.000;2023-06-19T09:24:13;12.30;;;4.90;;
54197;SDS011;40105;52.366;17.000;2023-06-19T09:26:38;8.17;;;4.47;;
54197;SDS011;40105;52.366;17.000;2023-06-19T09:29:15;6.70;;;3.78;;
54197;SDS011;40105;52.366;17.000;2023-06-19T09:31:41;6.65;;;3.88;;
54197;SDS011;40105;52.366;17.000;2023-06-19T09:34:07;6.10;;;4.32;;
54197;SDS011;40105;52.366;17.000;2023-06-19T09:36:33;7.93;;;4.22;;
54197;SDS011;40105;52.366;17.000;2023-06-19T09:38:59;11.30;;;5.38;;
54197;SDS011;40105;52.366;17.000;2023-06-19T09:41:25;8.82;;;4.75;;
54197;SDS011;40105;52.366;17.000;2023-06-19T09:43:50;8.05;;;4.18;;
54197;SDS011;40105;52.366;17.000;2023-06-19T09:46:22;8.13;;;4.35;;
54197;SDS011;40105;52.366;17.000;2023-06-19T09:48:50;6.32;;;4.22;;
54197;SDS011;40105;52.366;17.000;2023-06-19T09:51:20;7.88;;;5.43;;
54197;SDS011;40105;52.366;17.000;2023-06-19T09:53:47;5.90;;;4.45;;
54197;SDS011;40105;52.366;17.000;2023-06-19T09:56:13;14.45;;;4.97;;
54197;SDS011;40105;52.366;17.000;2023-06-19T09:58:40;6.47;;;4.72;;
54197;SDS011;40105;52.366;17.000;2023-06-19T10:01:09;27.25;;;6.07;;
54197;SDS011;40105;52.366;17.000;2023-06-19T10:03:35;11.13;;;4.78;;
54197;SDS011;40105;52.366;17.000;2023-06-19T10:06:01;9.05;;;4.47;;
54197;SDS011;40105;52.366;17.000;2023-06-19T10:08:29;6.82;;;4.38;;
54197;SDS011;40105;52.366;17.000;2023-06-19T10:10:55;9.85;;;5.07;;
54197;SDS011;40105;52.366;17.000;2023-06-19T10:13:22;5.95;;;4.47;;
54197;SDS011;40105;52.366;17.000;2023-06-19T10:15:56;6.82;;;4.80;;
54197;SDS011;40105;52.366;17.000;2023-06-19T10:18:21;7.97;;;5.03;;
54197;SDS011;40105;52.366;17.000;2023-06-19T10:20:49;6.57;;;4.47;;
54197;SDS011;40105;52.366;17.000;2023-06-19T10:23:18;7.57;;;4.90;;
54197;SDS011;40105;52.366;17.000;2023-06-19T10:25:48;8.95;;;5.40;;
54197;SDS011;40105;52.366;17.000;2023-06-19T10:28:20;6.70;;;4.22;;
54197;SDS011;40105;52.366;17.000;2023-06-19T10:30:53;8.07;;;4.35;;
54197;SDS011;40105;52.366;17.000;2023-06-19T10:33:23;15.38;;;4.97;;
54197;SDS011;40105;52.366;17.000;2023-06-19T10:35:49;8.38;;;4.68;;
54197;SDS011;40105;52.366;17.000;2023-06-19T10:38:15;5.53;;;4.38;;
54197;SDS011;40105;52.366;17.000;2023-06-19T10:40:40;11.85;;;5.00;;
54197;SDS011;40105;52.366;17.000;2023-06-19T10:43:06;7.38;;;4.57;;
54197;SDS011;40105;52.366;17.000;2023-06-19T10:45:31;7.07;;;5.00;;
54197;SDS011;40105;52.366;17.000;2023-06-19T10:47:57;7.03;;;4.80;;
54197;SDS011;40105;52.366;17.000;2023-06-19T10:50:25;7.28;;;4.80;;
54197;SDS011;40105;52.366;17.000;2023-06-19T10:52:52;7.43;;;4.77;;
54197;SDS011;40105;52.366;17.000;2023-06-19T10:55:20;11.73;;;4.80;;
54197;SDS011;40105;52.366;17.000;2023-06-19T10:57:45;6.03;;;4.40;;
54197;SDS011;40105;52.366;17.000;2023-06-19T11:00:11;7.07;;;5.53;;
54197;SDS011;40105;52.366;17.000;2023-06-19T11:02:47;7.68;;;4.53;;
54197;SDS011;40105;52.366;17.000;2023-06-19T11:05:13;13.63;;;5.10;;
54197;SDS011;40105;52.366;17.000;2023-06-19T11:07:39;12.65;;;5.22;;
54197;SDS011;40105;52.366;17.000;2023-06-19T11:10:04;9.27;;;5.00;;
54197;SDS011;40105;52.366;17.000;2023-06-19T11:12:31;9.68;;;4.93;;
54197;SDS011;40105;52.366;17.000;2023-06-19T11:14:57;11.75;;;5.13;;
54197;SDS011;40105;52.366;17.000;2023-06-19T11:17:22;6.57;;;4.63;;
54197;SDS011;40105;52.366;17.000;2023-06-19T11:19:49;9.83;;;5.87;;
54197;SDS011;40105;52.366;17.000;2023-06-19T11:22:14;5.35;;;4.18;;
54197;SDS011;40105;52.366;17.000;2023-06-19T11:24:46;9.17;;;4.90;;
54197;SDS011;40105;52.366;17.000;2023-06-19T11:27:19;11.18;;;5.18;;
54197;SDS011;40105;52.366;17.000;2023-06-19T11:29:58;6.15;;;4.40;;
54197;SDS011;40105;52.366;17.000;2023-06-19T11:32:24;7.95;;;4.13;;
54197;SDS011;40105;52.366;17.000;2023-06-19T11:34:56;15.85;;;5.30;;
54197;SDS011;40105;52.366;17.000;2023-06-19T11:37:21;11.10;;;5.15;;
54197;SDS011;40105;52.366;17.000;2023-06-19T11:39:47;7.32;;;4.50;;
54197;SDS011;40105;52.366;17.000;2023-06-19T11:42:14;7.32;;;4.60;;
54197;SDS011;40105;52.366;17.000;2023-06-19T11:44:54;8.20;;;4.85;;
54197;SDS011;40105;52.366;17.000;2023-06-19T11:47:31;8.05;;;4.22;;
54197;SDS011;40105;52.366;17.000;2023-06-19T11:50:03;10.48;;;4.80;;
54197;SDS011;40105;52.366;17.000;2023-06-19T11:52:29;8.07;;;4.38;;
54197;SDS011;40105;52.366;17.000;2023-06-19T11:54:55;11.50;;;5.07;;
54197;SDS011;40105;52.366;17.000;2023-06-19T11:57:20;12.03;;;4.20;;
54197;SDS011;40105;52.366;17.000;2023-06-19T11:59:45;14.27;;;4.53;;
54197;SDS011;40105;52.366;17.000;2023-06-19T12:02:11;7.25;;;4.43;;
54197;SDS011;40105;52.366;17.000;2023-06-19T12:04:37;9.77;;;4.65;;
54197;SDS011;40105;52.366;17.000;2023-06-19T12:07:02;8.60;;;4.77;;
54197;SDS011;40105;52.366;17.000;2023-06-19T12:09:29;11.88;;;4.13;;
54197;SDS011;40105;52.366;17.000;2023-06-19T12:11:55;5.93;;;4.25;;
54197;SDS011;40105;52.366;17.000;2023-06-19T12:14:20;12.38;;;4.47;;
54197;SDS011;40105;52.366;17.000;2023-06-19T12:16:46;8.73;;;4.05;;
54197;SDS011;40105;52.366;17.000;2023-06-19T12:19:11;10.02;;;5.03;;
54197;SDS011;40105;52.366;17.000;2023-06-19T12:21:37;11.93;;;4.80;;
54197;SDS011;40105;52.366;17.000;2023-06-19T12:24:02;8.97;;;4.37;;
54197;SDS011;40105;52.366;17.000;2023-06-19T12:26:28;10.98;;;4.72;;
54197;SDS011;40105;52.366;17.000;2023-06-19T12:28:53;8.00;;;4.45;;
54197;SDS011;40105;52.366;17.000;2023-06-19T12:31:18;6.50;;;4.77;;
54197;SDS011;40105;52.366;17.000;2023-06-19T12:33:43;8.30;;;4.77;;
54197;SDS011;40105;52.366;17.000;2023-06-19T12:36:12;6.70;;;4.55;;
54197;SDS011;40105;52.366;17.000;2023-06-19T12:38:38;7.32;;;4.22;;
54197;SDS011;40105;52.366;17.000;2023-06-19T12:41:04;10.60;;;4.32;;
54197;SDS011;40105;52.366;17.000;2023-06-19T12:43:30;11.60;;;4.40;;
54197;SDS011;40105;52.366;17.000;2023-06-19T12:45:56;14.75;;;5.38;;
54197;SDS011;40105;52.366;17.000;2023-06-19T12:48:24;13.98;;;4.72;;
54197;SDS011;40105;52.366;17.000;2023-06-19T12:50:49;11.63;;;4.40;;
54197;SDS011;40105;52.366;17.000;2023-06-19T12:53:14;19.87;;;5.23;;
54197;SDS011;40105;52.366;17.000;2023-06-19T12:55:40;16.90;;;3.97;;
54197;SDS011;40105;52.366;17.000;2023-06-19T12:58:05;7.30;;;4.35;;
54197;SDS011;40105;52.366;17.000;2023-06-19T13:00:30;6.28;;;3.97;;
54197;SDS011;40105;52.366;17.000;2023-06-19T13:02:56;9.45;;;4.43;;
54197;SDS011;40105;52.366;17.000;2023-06-19T13:05:21;9.30;;;4.43;;
54197;SDS011;40105;52.366;17.000;2023-06-19T13:07:47;11.70;;;4.27;;
54197;SDS011;40105;52.366;17.000;2023-06-19T13:10:12;8.23;;;4.97;;
54197;SDS011;40105;52.366;17.000;2023-06-19T13:12:37;9.07;;;3.90;;
54197;SDS011;40105;52.366;17.000;2023-06-19T13:15:03;9.30;;;4.47;;
54197;SDS011;40105;52.366;17.000;2023-06-19T13:17:29;10.55;;;4.20;;
54197;SDS011;40105;52.366;17.000;2023-06-19T13:19:54;6.57;;;3.70;;
54197;SDS011;40105;52.366;17.000;2023-06-19T13:22:19;7.50;;;4.05;;
54197;SDS011;40105;52.366;17.000;2023-06-19T13:24:45;6.53;;;4.03;;
54197;SDS011;40105;52.366;17.000;2023-06-19T13:27:10;11.60;;;3.87;;
54197;SDS011;40105;52.366;17.000;2023-06-19T13:29:35;11.37;;;3.70;;
54197;SDS011;40105;52.366;17.000;2023-06-19T13:32:01;7.60;;;4.10;;
54197;SDS011;40105;52.366;17.000;2023-06-19T13:34:26;15.00;;;4.38;;
54197;SDS011;40105;52.366;17.000;2023-06-19T13:36:51;8.60;;;4.40;;
54197;SDS011;40105;52.366;17.000;2023-06-19T13:39:17;7.13;;;4.43;;
54197;SDS011;40105;52.366;17.000;2023-06-19T13:41:45;7.68;;;4.40;;
54197;SDS011;40105;52.366;17.000;2023-06-19T13:44:11;8.88;;;4.00;;
54197;SDS011;40105;52.366;17.000;2023-06-19T13:46:37;65.93;;;5.88;;
54197;SDS011;40105;52.366;17.000;2023-06-19T13:49:03;12.43;;;4.22;;
54197;SDS011;40105;52.366;17.000;2023-06-19T13:51:28;6.50;;;3.65;;
54197;SDS011;40105;52.366;17.000;2023-06-19T13:53:53;6.23;;;4.47;;
54197;SDS011;40105;52.366;17.000;2023-06-19T13:56:19;8.50;;;4.32;;
54197;SDS011;40105;52.366;17.000;2023-06-19T13:58:45;9.32;;;4.22;;
54197;SDS011;40105;52.366;17.000;2023-06-19T14:01:10;8.70;;;4.10;;
54197;SDS011;40105;52.366;17.000;2023-06-19T14:03:36;9.37;;;3.80;;
54197;SDS011;40105;52.366;17.000;2023-06-19T14:06:02;8.57;;;4.05;;
54197;SDS011;40105;52.366;17.000;2023-06-19T14:08:27;6.45;;;4.65;;
54197;SDS011;40105;52.366;17.000;2023-06-19T14:10:54;26.33;;;4.85;;
54197;SDS011;40105;52.366;17.000;2023-06-19T14:13:19;22.23;;;5.00;;
54197;SDS011;40105;52.366;17.000;2023-06-19T14:15:45;8.33;;;4.40;;
54197;SDS011;40105;52.366;17.000;2023-06-19T14:18:10;6.30;;;3.80;;
54197;SDS011;40105;52.366;17.000;2023-06-19T14:20:35;9.37;;;4.10;;